Aérodrome :
LOGIN :

S'inscrire | Disclaimer

   EN    FR    IT 

 










Légende :    VFR   VFR Marginal   IFR   IFR Intensif   IFR Très Intensif
Visi : 
Plafond : 
>= 8 km
>= 3000ft
5 à 8 km
1000 à 3000 ft
1500m à 5 km
500 à 1000 ft
800 à 1500m
200 à 500 ft
< 800m
< 200 ft
Symboles :   Orages  Brouillard  Fortes neiges  Fortes précipitations  Vent > 20 kt
SIGMETs :   Divers  Orages  Givrage  Turbulence  Onde Orograph.  Cendres Volcan.






- Altitude de l'aérodrome : 74 ft
- Code IATA : LRH


LFBH - La Rochelle Ile de Ré

DERNIER METAR :
  • 151830Z AUTO 29015KT CAVOK 19/13 Q1021 TEMPO 29015G25KT

METARs EXPIRÉS :
  • 151800Z AUTO 30014KT 9999 FEW019 19/13 Q1020 TEMPO 29015G25KT
  • 151730Z AUTO 29015KT CAVOK 20/13 Q1020 TEMPO 29015G25KT
  • 151700Z AUTO 29016KT CAVOK 20/12 Q1020 TEMPO 29015G25KT
  • 151630Z AUTO 29016KT CAVOK 19/12 Q1020 TEMPO 29015G25KT
  • 151600Z AUTO 29017KT 9000 NSC 20/12 Q1020 TEMPO 29015G25KT

TAF TAF LFBH
Valide du 15 à 18h jusqu'au 16 à 18h UTC


151700Z 1518/1618 30012KT CAVOK
TEMPO 1518/1520 29015G25KT
BECMG 1523/1601 VRB02KT BKN010
BECMG 1607/1609 BKN030
BECMG 1609/1612 30010KT
TEMPO 1616/1618 30010G20KT
ATIS : +33 5 46 00 13 92



MET'MAP, la Météo Aéronautique d'un coup d'oeil ! - Copyright ORBIFLY Décembre 2007 - Disclaimer

ORBIFLY MET'MAP TEAM :

Programmation & Développement : Alexandra Zaïnal
Sur une idée originale de : Baudouin d'Aumeries
Assistance à la programmation : Marc-Olivier Méhu
Soutien technique & logistique : Manuel Goepfert

Contact : metmap@orbifly.com




SOURCES & CREDITS :

   NOAA